Latest Weather Observations for Shepparton

IDV60801

Issued at 9:02 am EDT Monday 22 December 2014 (issued every 30 minutes, with the page automatically refreshed every 10 minutes)

About weather observations | Map of weather stations | Latest weather observations for VIC | Other Formats
Station Details ID: 081125 Name: SHEPPARTON AIRPORT Lat: -36.43 Lon: 145.39 Height: 113.9 m
Data from the previous 72 hours. | See also: Recent months at Shepparton
Date/Time
EDT
Temp
°C
App
Temp
°C
Dew
Point
Rel
Hum
%
Delta-T
°C
Wind Press
QNH
hPa
Press
MSL
hPa
Rain
since 9 am
mm
Dir
 
Spd
km/h
Gust
km/h
Spd
kts
Gust
kts
22/09:00am 27.9 25.4 9.7 32 10.2 E 13 17 7 9 1011.9 1011.5 0.0
22/08:30am 25.6 23.1 9.8 37 8.8 ESE 13 17 7 9 1011.7 1011.3 0.0
22/08:00am 23.1 21.2 10.5 45 7.0 ESE 11 15 6 8 1011.8 1011.4 0.0
22/07:30am 20.6 19.2 11.0 54 5.3 SE 9 13 5 7 1011.7 1011.3 0.0
22/07:00am 18.3 17.7 11.6 65 3.7 SE 6 7 3 4 1011.5 1011.1 0.0
22/06:30am 16.6 15.9 11.3 71 2.9 SE 6 7 3 4 1011.3 1010.9 0.0
22/06:00am 15.8 14.9 11.2 74 2.5 S 7 9 4 5 1011.1 1010.7 0.0
22/05:30am 16.3 14.7 11.5 73 2.6 S 11 13 6 7 1010.9 1010.5 0.0
22/05:00am 16.3 14.7 11.5 73 2.6 S 11 13 6 7 1010.7 1010.3 0.0
22/04:30am 16.6 15.7 11.5 72 2.8 SE 7 7 4 4 1010.6 1010.2 0.0
22/04:00am 17.1 16.4 12.0 72 2.8 SE 7 9 4 5 1010.8 1010.4 0.0
22/03:30am 17.6 16.3 11.4 67 3.4 SSE 9 11 5 6 1011.1 1010.7 0.0
22/03:00am 19.0 17.2 12.0 64 3.9 S 13 17 7 9 1011.0 1010.6 0.0
22/02:30am 19.1 17.6 11.9 63 4.0 SSE 11 13 6 7 1011.1 1010.7 0.0
22/02:00am 19.9 18.7 11.7 59 4.6 S 9 13 5 7 1011.1 1010.7 0.0
22/01:30am 20.2 18.9 11.1 56 5.0 S 9 11 5 6 1011.3 1010.9 0.0
22/01:00am 21.3 19.1 9.2 46 6.5 S 11 20 6 11 1011.7 1011.3 0.0
22/12:30am 19.5 18.6 10.5 56 4.9 ENE 6 7 3 4 1011.6 1011.2 0.0
22/12:00am 19.6 19.1 10.6 56 4.9 NE 4 13 2 7 1011.7 1011.3 0.0
 
Date/Time
EDT
Temp
°C
App
Temp
°C
Dew
Point
Rel
Hum
%
Delta-T
°C
Wind Press
QNH
hPa
Press
MSL
hPa
Rain
since 9 am
mm
Dir
 
Spd
km/h
Gust
km/h
Spd
kts
Gust
kts
21/11:30pm 21.7 21.8 10.2 48 6.3 CALM 0 0 0 0 1011.7 1011.3 0.0
21/11:00pm 22.8 21.9 10.6 46 6.8 NE 6 9 3 5 1011.8 1011.4 0.0
21/10:30pm 23.8 23.7 9.4 40 7.9 CALM 0 0 0 0 1012.0 1011.6 0.0
21/10:00pm 24.7 24.8 10.2 40 8.1 CALM 0 6 0 3 1012.0 1011.6 0.0
21/09:30pm 27.4 25.8 7.8 29 10.6 N 6 6 3 3 1011.8 1011.4 0.0
21/09:00pm 27.5 25.9 8.9 31 10.3 NNE 7 7 4 4 1011.6 1011.2 0.0
21/08:30pm 28.4 26.6 8.1 28 11.1 NNE 7 7 4 4 1011.5 1011.1 0.0
21/08:00pm 30.2 27.9 5.5 21 13.0 NW 7 11 4 6 1011.3 1010.9 0.0
21/07:30pm 31.1 28.2 4.8 19 13.8 NNW 9 15 5 8 1010.9 1010.5 0.0
21/07:00pm 32.0 29.7 4.7 18 14.4 N 6 13 3 7 1011.0 1010.6 0.0
21/06:30pm 32.5 29.5 4.3 17 14.8 NW 9 15 5 8 1010.9 1010.5 0.0
21/06:00pm 32.3 30.8 5.0 18 14.5 W 2 9 1 5 1011.0 1010.6 0.0
21/05:30pm 32.0 29.3 3.9 17 14.6 NNE 7 13 4 7 1011.2 1010.8 0.0
21/05:00pm 32.0 29.1 4.7 18 14.4 SW 9 22 5 12 1011.7 1011.3 0.0
21/04:30pm 32.3 28.7 5.0 18 14.5 NNW 13 22 7 12 1011.7 1011.3 0.0
21/04:00pm 32.1 28.5 4.8 18 14.4 W 13 28 7 15 1012.2 1011.8 0.0
21/03:30pm 32.4 28.8 5.0 18 14.5 SSW 13 24 7 13 1012.5 1012.1 0.0
21/03:00pm 32.4 29.4 5.8 19 14.3 S 11 19 6 10 1012.7 1012.3 0.0
21/02:30pm 32.4 28.0 5.0 18 14.5 WSW 17 26 9 14 1013.3 1012.9 0.0
21/02:00pm 31.5 27.4 4.3 18 14.2 W 15 24 8 13 1013.7 1013.3 0.0
21/01:30pm 31.6 27.1 5.9 20 13.8 WNW 19 32 10 17 1014.0 1013.6 0.0
21/01:00pm 30.4 27.5 6.3 22 12.9 SW 11 20 6 11 1014.2 1013.8 0.0
21/12:30pm 30.0 27.5 6.6 23 12.6 WSW 9 24 5 13 1014.5 1014.1 0.0
21/12:00pm 29.3 26.2 7.2 25 11.9 NW 13 22 7 12 1014.7 1014.3 0.0
21/11:30am 29.2 27.1 8.3 27 11.5 N 9 19 5 10 1014.6 1014.2 0.0
21/11:00am 28.7 26.9 9.4 30 10.8 NNE 9 19 5 10 1014.7 1014.3 0.0
21/10:30am 28.0 26.5 10.7 34 9.8 NE 9 19 5 10 1014.9 1014.5 0.0
21/10:00am 25.7 23.4 10.3 38 8.6 NNE 13 19 7 10 1015.2 1014.8 0.0
21/09:30am 24.4 22.5 11.7 45 7.2 NE 13 17 7 9 1015.4 1015.0 0.0
21/09:00am 23.1 21.6 11.8 49 6.4 ENE 11 17 6 9 1015.5 1015.1 0.0
21/08:30am 21.2 20.2 11.0 52 5.6 E 7 11 4 6 1015.5 1015.1 0.0
21/08:00am 18.9 17.8 10.7 59 4.4 E 7 11 4 6 1015.5 1015.1 0.0
21/07:30am 16.4 15.1 11.1 71 2.9 SSE 9 11 5 6 1015.3 1014.9 0.0
21/07:00am 14.8 14.1 11.4 80 1.8 SSE 6 6 3 3 1014.9 1014.5 0.0
21/06:30am 13.7 14.0 11.0 84 1.4 CALM 0 0 0 0 1014.5 1014.1 0.0
21/06:00am 12.8 12.9 10.3 85 1.3 CALM 0 6 0 3 1014.1 1013.7 0.0
21/05:30am 12.7 11.5 10.2 85 1.3 SSW 7 9 4 5 1013.8 1013.4 0.0
21/05:00am 13.3 13.4 10.3 82 1.6 CALM 0 0 0 0 1013.7 1013.3 0.0
21/04:30am 13.6 13.7 10.2 80 1.8 CALM 0 0 0 0 1013.6 1013.2 0.0
21/04:00am 14.1 12.9 10.3 78 2.0 SSE 7 9 4 5 1013.5 1013.1 0.0
21/03:30am 14.8 13.3 10.6 76 2.2 S 9 13 5 7 1013.8 1013.4 0.0
21/03:00am 15.6 14.0 10.2 70 2.8 S 9 11 5 6 1014.0 1013.6 0.0
21/02:30am 16.1 14.1 10.2 68 3.1 S 11 13 6 7 1014.2 1013.8 0.0
21/02:00am 16.5 14.5 10.1 66 3.4 S 11 13 6 7 1014.5 1014.1 0.0
21/01:30am 17.3 14.6 9.0 58 4.3 S 13 17 7 9 1014.8 1014.4 0.0
21/01:00am 17.9 15.1 8.5 54 4.9 S 13 19 7 10 1015.1 1014.7 0.0
21/12:30am 18.6 15.8 8.6 52 5.2 S 13 15 7 8 1015.2 1014.8 0.0
21/12:00am 18.8 16.0 8.7 52 5.3 S 13 17 7 9 1015.3 1014.9 0.0
 
Date/Time
EDT
Temp
°C
App
Temp
°C
Dew
Point
Rel
Hum
%
Delta-T
°C
Wind Press
QNH
hPa
Press
MSL
hPa
Rain
since 9 am
mm
Dir
 
Spd
km/h
Gust
km/h
Spd
kts
Gust
kts
20/11:30pm 19.8 17.1 8.8 49 5.8 S 13 19 7 10 1015.3 1014.9 0.0
20/11:00pm 20.7 17.2 8.7 46 6.3 S 17 20 9 11 1015.3 1014.9 0.0
20/10:30pm 20.8 17.6 8.4 45 6.5 S 15 17 8 9 1015.3 1014.9 0.0
20/10:00pm 21.9 18.2 8.1 41 7.3 S 17 20 9 11 1015.2 1014.8 0.0
20/09:30pm 22.5 19.1 7.5 38 7.8 S 15 17 8 9 1015.0 1014.6 0.0
20/09:00pm 24.1 19.7 7.3 34 8.8 SSE 20 28 11 15 1014.7 1014.3 0.0
20/08:30pm 25.5 21.7 7.6 32 9.5 SSE 17 22 9 12 1014.2 1013.8 0.0
20/08:00pm 27.1 23.7 7.5 29 10.5 SSE 15 20 8 11 1013.9 1013.5 0.0
20/07:30pm 28.0 24.1 7.3 27 11.1 SSE 17 22 9 12 1013.8 1013.4 0.0
20/07:00pm 28.2 24.1 6.3 25 11.6 SSW 17 22 9 12 1013.6 1013.2 0.0
20/06:30pm 28.4 24.4 6.5 25 11.6 SW 17 24 9 13 1013.5 1013.1 0.0
20/06:00pm 28.1 23.4 6.2 25 11.6 SSW 20 33 11 18 1013.5 1013.1 0.0
20/05:30pm 28.4 23.8 6.5 25 11.6 SW 20 35 11 19 1013.7 1013.3 0.0
20/05:00pm 28.8 25.2 6.8 25 11.8 SSW 15 28 8 15 1013.9 1013.5 0.0
20/04:30pm 28.4 23.9 7.1 26 11.4 SW 20 32 11 17 1014.2 1013.8 0.0
20/04:00pm 27.8 23.8 6.6 26 11.2 SSW 17 28 9 15 1014.6 1014.2 0.0
20/03:30pm 26.9 22.3 6.3 27 10.8 SW 20 33 11 18 1015.1 1014.7 0.0
20/03:00pm 26.3 22.5 7.4 30 10.1 SSW 17 28 9 15 1015.5 1015.1 0.0
20/02:30pm 25.9 21.5 6.5 29 10.2 S 19 33 10 18 1015.9 1015.6 0.0
20/02:00pm 26.0 22.6 7.6 31 9.8 SW 15 26 8 14 1016.3 1016.0 0.0
20/01:30pm 25.1 21.2 7.3 32 9.4 SSW 17 26 9 14 1016.5 1016.2 0.0
20/01:00pm 24.3 20.3 6.6 32 9.2 S 17 26 9 14 1017.1 1016.8 0.0
20/12:30pm 23.5 19.3 5.9 32 9.0 SW 17 28 9 15 1017.3 1017.0 0.0
20/12:00pm 23.4 19.3 6.2 33 8.8 SSW 17 26 9 14 1017.5 1017.2 0.0
20/11:30am 22.9 19.6 6.2 34 8.5 SW 13 24 7 13 1017.8 1017.5 0.0
20/11:00am 21.8 18.5 6.5 37 7.8 SSW 13 24 7 13 1018.0 1017.7 0.0
20/10:30am 20.2 16.4 5.8 39 7.2 SSW 15 20 8 11 1018.2 1017.9 0.0
20/10:00am 19.0 15.3 6.1 43 6.4 SSW 15 20 8 11 1018.3 1018.0 0.0
20/09:30am 18.1 14.8 6.3 46 5.9 S 13 20 7 11 1018.4 1018.1 0.0
20/09:00am 17.2 12.8 6.4 49 5.3 S 19 24 10 13 1018.2 1017.9 0.0
20/08:30am 16.1 11.1 6.5 53 4.7 S 22 30 12 16 1017.9 1017.6 0.0
20/08:00am 15.1 11.1 6.7 57 4.1 S 17 28 9 15 1017.7 1017.4 0.0
20/07:30am 13.8 9.4 6.7 62 3.4 S 19 24 10 13 1017.7 1017.4 0.0
20/07:00am 12.7 9.0 6.5 66 3.0 SSW 15 20 8 11 1017.6 1017.3 0.0
20/06:30am 11.7 9.2 6.6 71 2.4 SSW 9 13 5 7 1017.4 1017.1 0.0
20/06:00am 11.1 7.7 6.0 71 2.4 SSW 13 15 7 8 1017.2 1016.9 0.0
20/05:30am 11.6 7.9 6.3 70 2.5 S 15 19 8 10 1017.0 1016.7 0.0
20/05:00am 11.2 8.2 6.1 71 2.4 S 11 15 6 8 1016.9 1016.6 0.0
20/04:30am 11.6 8.3 6.3 70 2.5 S 13 17 7 9 1016.8 1016.5 0.0
20/04:00am 11.8 8.5 6.5 70 2.5 SSE 13 17 7 9 1016.9 1016.6 0.0
20/03:30am 12.5 8.6 7.0 69 2.7 S 17 20 9 11 1017.1 1016.8 0.0
20/03:00am 12.2 9.1 7.1 71 2.5 S 13 15 7 8 1017.3 1017.0 0.0
20/02:30am 12.6 9.1 7.3 70 2.6 S 15 19 8 10 1017.4 1017.1 0.0
20/02:00am 13.0 9.8 7.0 67 2.9 S 13 15 7 8 1017.7 1017.4 0.0
20/01:30am 13.2 10.0 7.0 66 3.0 S 13 17 7 9 1017.8 1017.5 0.0
20/01:00am 13.8 10.9 6.4 61 3.6 S 11 15 6 8 1017.8 1017.5 0.0
20/12:30am 14.5 10.8 6.3 58 4.0 S 15 19 8 10 1017.9 1017.6 0.0
20/12:00am 15.3 10.8 6.3 55 4.4 S 19 24 10 13 1018.1 1017.8 0.0
 
Date/Time
EDT
Temp
°C
App
Temp
°C
Dew
Point
Rel
Hum
%
Delta-T
°C
Wind Press
QNH
hPa
Press
MSL
hPa
Rain
since 9 am
mm
Dir
 
Spd
km/h
Gust
km/h
Spd
kts
Gust
kts
19/11:30pm 15.7 11.6 6.2 53 4.6 S 17 22 9 12 1018.3 1018.0 0.0
19/11:00pm 16.1 11.9 5.7 50 5.0 S 17 22 9 12 1018.4 1018.1 0.0
19/10:30pm 16.1 12.5 4.8 47 5.4 SSE 13 17 7 9 1018.2 1017.9 0.0
19/10:00pm 17.0 13.0 5.0 45 5.7 SSE 15 19 8 10 1017.9 1017.6 0.0
19/09:30pm 17.3 13.6 4.3 42 6.2 SSE 13 19 7 10 1017.6 1017.3 0.0
19/09:00pm 18.3 13.7 3.8 38 6.8 SSE 17 22 9 12 1017.2 1016.9 0.0
19/08:30pm 19.3 13.7 3.5 35 7.5 SSE 22 30 12 16 1017.1 1016.8 0.0
19/08:00pm 20.5 15.3 3.7 33 8.0 SSE 20 26 11 14 1016.8 1016.5 0.0
19/07:30pm 21.3 15.2 3.0 30 8.7 S 24 33 13 18 1016.4 1016.1 0.0
19/07:00pm 21.9 16.6 3.1 29 9.0 SSW 20 30 11 16 1016.2 1015.9 0.0
19/06:30pm 22.0 15.5 2.7 28 9.2 S 26 35 14 19 1015.9 1015.6 0.0
19/06:00pm 22.3 15.4 2.4 27 9.4 S 28 37 15 20 1015.6 1015.2 0.0
19/05:30pm 22.4 15.5 2.5 27 9.5 S 28 41 15 22 1015.4 1015.0 0.0
19/05:00pm 23.1 16.7 3.1 27 9.7 S 26 39 14 21 1015.5 1015.1 0.0
19/04:30pm 22.6 16.5 2.7 27 9.5 SSW 24 39 13 21 1015.5 1015.1 0.0
19/04:00pm 23.1 17.1 3.1 27 9.7 SSW 24 37 13 20 1015.7 1015.4 0.0
19/03:30pm 21.9 15.0 2.6 28 9.2 SSW 28 43 15 23 1015.6 1015.2 0.0
19/03:19pm 22.4 15.2 3.0 28 9.3 S 30 48 16 26 1015.6 1015.2 0.0
19/03:00pm 22.7 15.8 2.8 27 9.5 SSW 28 41 15 22 1015.7 1015.4 0.0
19/02:48pm 22.0 15.0 2.2 27 9.3 SSW 28 46 15 25 1015.8 1015.5 0.0
19/02:30pm 21.3 13.9 2.1 28 9.0 S 30 43 16 23 1015.9 1015.6 0.0
19/02:00pm 22.0 15.7 3.6 30 8.9 SSW 26 46 14 25 1016.2 1015.9 0.0
19/01:38pm 21.2 14.3 2.5 29 8.8 S 28 46 15 25 1016.0 1015.7 0.0
19/01:30pm 21.3 14.4 2.6 29 8.8 SSW 28 44 15 24 1016.2 1015.9 0.0
19/01:00pm 20.8 14.8 3.1 31 8.4 S 24 37 13 20 1016.3 1016.0 0.0
19/12:30pm 20.4 14.0 3.2 32 8.2 SSW 26 37 14 20 1016.4 1016.1 0.0
19/12:09pm 19.4 12.5 2.7 33 7.8 S 28 61 15 33 1016.6 1016.3 0.0
19/12:06pm 19.8 13.0 3.1 33 7.9 S 28 61 15 33 1016.5 1016.2 0.0
19/12:04pm 20.1 14.1 3.3 33 8.0 SSW 24 61 13 33 1016.5 1016.2 0.0
19/12:00pm 20.7 14.7 3.4 32 8.3 SSW 24 41 13 22 1016.5 1016.2 0.0
19/11:30am 19.3 14.0 3.1 34 7.6 SSE 20 33 11 18 1016.3 1016.0 0.0
19/11:00am 17.5 11.1 3.4 39 6.6 SSW 26 35 14 19 1016.6 1016.3 0.0
19/10:30am 17.7 12.6 4.3 41 6.4 S 20 30 11 16 1016.6 1016.3 0.0
19/10:00am 16.5 11.3 5.5 48 5.3 S 22 32 12 17 1016.5 1016.2 0.0
19/09:30am 16.4 10.9 5.7 49 5.2 S 24 33 13 18 1016.7 1016.4 0.0

Other Formats:

Comma delimited format used in spreadsheet applications
http://www.bom.gov.au/fwo/IDV60801/IDV60801.94875.axf

JavaScript Object Notation format (JSON) in row-major order
http://www.bom.gov.au/fwo/IDV60801/IDV60801.94875.json